Time;durP1;ratioP1;P1;durP2;ratioP2;P2;SDS_P1;SDS_P2;PMS_P1;PMS_P2;Temp;Humidity;BMP_temperature;BMP_pressure;BME280_temperature;BME280_humidity;BME280_pressure;Samples;Min_cycle;Max_cycle;Signal;HPM_P1;HPM_P2
2022/01/23 00:04:30;;;;;;;25.83;16.27;;;;;;;4.27;81.82;101630.03;1078177;46;20372;-83
2022/01/23 00:11:43;;;;;;;24.92;17.90;;;;;;;4.32;81.88;101617.47;1097693;39;20838;-84
2022/01/23 00:12:49;;;;;;;24.17;18.10;;;;;;;4.24;82.09;101616.94;1088634;54;20034;-82
2022/01/23 00:17:33;;;;;;;31.52;21.25;;;;;;;4.16;82.32;101611.94;1087757;54;20034;-81
2022/01/23 00:33:59;;;;;;;24.30;16.10;;;;;;;4.76;80.65;101608.47;1087773;54;20030;-82
2022/01/23 00:35:08;;;;;;;21.40;14.88;;;;;;;4.81;80.49;101608.28;1088621;54;20031;-82
2022/01/23 00:38:22;;;;;;;24.83;17.52;;;;;;;4.39;80.93;101611.91;1090651;46;20030;-82
2022/01/23 00:39:24;;;;;;;24.27;17.17;;;;;;;4.47;81.26;101615.09;1088518;54;20296;-82
2022/01/23 00:49:27;;;;;;;21.23;15.88;;;;;;;4.70;80.50;101611.41;1089060;39;20779;-82
2022/01/23 00:50:32;;;;;;;22.17;16.85;;;;;;;4.66;80.16;101620.41;1088194;54;20022;-80
2022/01/23 00:51:40;;;;;;;19.10;15.25;;;;;;;4.65;80.14;101618.69;1088217;54;20030;-81
2022/01/23 00:52:42;;;;;;;19.63;15.73;;;;;;;4.73;80.18;101605.97;1088570;39;20512;-81
2022/01/23 00:53:48;;;;;;;22.63;16.38;;;;;;;4.85;79.75;101612.53;1088107;54;20042;-80
2022/01/23 00:54:50;;;;;;;19.95;15.00;;;;;;;4.91;79.78;101600.78;1088376;54;20130;-84
2022/01/23 00:55:55;;;;;;;22.02;15.00;;;;;;;4.84;79.51;101603.69;1088054;54;20587;-79
2022/01/23 00:56:57;;;;;;;20.63;15.48;;;;;;;4.88;79.80;101608.88;1088157;54;20018;-82
2022/01/23 00:58:01;;;;;;;18.88;14.85;;;;;;;4.93;79.74;101609.50;1088212;54;20078;-83
2022/01/23 00:59:07;;;;;;;22.05;14.23;;;;;;;4.96;79.29;101604.91;1088205;54;20050;-82
2022/01/23 01:00:13;;;;;;;20.50;16.02;;;;;;;4.80;79.84;101606.56;1088331;54;20031;-80
2022/01/23 01:01:19;;;;;;;24.35;16.45;;;;;;;4.67;79.97;101604.47;1089173;46;20039;-80
2022/01/23 01:02:20;;;;;;;24.75;18.10;;;;;;;4.75;80.10;101600.63;1088255;54;20030;-80
2022/01/23 01:03:25;;;;;;;25.10;16.98;;;;;;;4.70;80.09;101606.13;1088328;54;20019;-81
2022/01/23 01:04:29;;;;;;;22.20;16.00;;;;;;;4.72;79.81;101606.03;1088552;54;20022;-79
2022/01/23 01:05:35;;;;;;;21.67;17.48;;;;;;;4.82;79.61;101605.56;1088658;54;20038;-82
2022/01/23 01:06:37;;;;;;;21.42;15.05;;;;;;;4.88;79.58;101600.91;1088278;54;20018;-79
2022/01/23 01:07:43;;;;;;;22.60;16.70;;;;;;;4.74;79.48;101594.44;1088349;54;20585;-81
2022/01/23 01:08:47;;;;;;;19.48;15.55;;;;;;;4.62;79.95;101603.81;1088509;54;20038;-81
2022/01/23 01:09:58;;;;;;;22.50;16.33;;;;;;;4.78;79.45;101598.69;1088418;54;20030;-81
2022/01/23 01:11:16;;;;;;;22.05;16.02;;;;;;;4.84;79.27;101598.41;1088446;54;20046;-81
2022/01/23 01:12:26;;;;;;;20.75;16.15;;;;;;;4.81;79.42;101602.97;1088312;54;20043;-79
2022/01/23 01:13:40;;;;;;;20.30;15.82;;;;;;;4.75;79.65;101596.16;1088359;54;20026;-81
2022/01/23 01:16:33;;;;;;;22.40;17.30;;;;;;;4.57;80.11;101595.22;1088065;54;20030;-81
2022/01/23 01:17:35;;;;;;;25.83;18.98;;;;;;;4.43;80.31;101601.13;1088361;54;20066;-81
2022/01/23 01:30:53;;;;;;;20.05;13.57;;;;;;;4.87;78.82;101608.00;1088200;54;20019;-80
2022/01/23 01:32:01;;;;;;;18.45;12.93;;;;;;;4.97;78.96;101611.09;1089055;46;20014;-83
2022/01/23 01:33:16;;;;;;;17.98;12.52;;;;;;;5.05;78.73;101611.59;1088182;54;20018;-80
2022/01/23 01:34:26;;;;;;;18.00;13.43;;;;;;;5.09;78.51;101615.84;1088111;54;20019;-81
2022/01/23 01:35:36;;;;;;;17.77;12.68;;;;;;;5.10;78.54;101616.69;1088138;54;20042;-81
2022/01/23 01:36:47;;;;;;;17.27;12.48;;;;;;;5.10;78.40;101617.53;1088255;54;20086;-81
2022/01/23 01:37:48;;;;;;;;;;;;;;;5.05;78.44;101616.06;1088674;54;20041;-81
2022/01/23 01:38:55;;;;;;;17.33;12.18;;;;;;;5.05;78.51;101606.31;1088551;54;19927;-83
2022/01/23 01:40:06;;;;;;;17.15;12.10;;;;;;;5.08;78.54;101606.16;1088395;54;20026;-79
2022/01/23 01:41:10;;;;;;;15.60;11.68;;;;;;;5.08;78.39;101611.47;1088427;54;20090;-80
2022/01/23 01:42:22;;;;;;;17.90;12.35;;;;;;;5.11;78.64;101611.31;1088427;54;20027;-81
2022/01/23 01:43:24;;;;;;;17.23;13.35;;;;;;;5.12;78.66;101601.59;1088353;54;20015;-81
2022/01/23 01:44:30;;;;;;;22.00;15.50;;;;;;;4.88;78.84;101611.53;1090907;39;20528;-81
2022/01/23 01:45:34;;;;;;;21.98;16.48;;;;;;;4.79;79.16;101613.66;1088387;54;20026;-79
2022/01/23 01:46:42;;;;;;;22.92;16.10;;;;;;;4.92;78.86;101610.44;1088475;54;20015;-81
2022/01/23 01:47:50;;;;;;;19.85;15.35;;;;;;;5.00;78.65;101613.63;1091460;46;20046;-81
2022/01/23 01:48:52;;;;;;;20.60;14.70;;;;;;;5.02;78.59;101610.88;1090919;39;20438;-81
2022/01/23 01:49:56;;;;;;;23.38;17.55;;;;;;;5.04;78.43;101615.19;1087800;54;20541;-81
2022/01/23 01:51:01;;;;;;;19.20;14.63;;;;;;;5.05;78.32;101613.41;1088490;54;20042;-82
2022/01/23 01:52:09;;;;;;;25.13;16.90;;;;;;;5.02;78.38;101619.69;1088428;54;20137;-81
2022/01/23 01:53:11;;;;;;;21.45;16.35;;;;;;;5.03;78.23;101613.47;1088553;54;20015;-82
2022/01/23 01:54:20;;;;;;;21.15;15.65;;;;;;;4.97;78.28;101608.44;1088470;54;20049;-81
2022/01/23 01:55:26;;;;;;;20.75;14.88;;;;;;;4.98;78.55;101613.66;1088453;54;20029;-81
2022/01/23 01:56:36;;;;;;;19.90;14.60;;;;;;;5.00;78.21;101608.31;1088508;54;20018;-80
2022/01/23 01:57:43;;;;;;;18.35;13.25;;;;;;;5.04;78.30;101612.53;1088514;54;20019;-81
2022/01/23 01:59:17;;;;;;;20.45;14.95;;;;;;;5.00;78.42;101608.31;1088447;54;20054;-80
2022/01/23 02:00:37;;;;;;;19.75;13.60;;;;;;;5.04;78.34;101614.34;1088445;54;20044;-83
2022/01/23 02:08:27;;;;;;;17.90;12.35;;;;;;;5.05;78.10;101611.59;1088584;54;20026;-83
2022/01/23 02:09:41;;;;;;;18.58;14.05;;;;;;;4.99;78.51;101598.63;1088540;54;20041;-82
2022/01/23 02:10:49;;;;;;;19.27;13.40;;;;;;;5.03;78.31;101604.66;1088537;54;20026;-81
2022/01/23 02:12:12;;;;;;;19.58;14.43;;;;;;;5.00;78.37;101597.72;1088559;54;20048;-81
2022/01/23 02:50:33;;;;;;;24.23;16.95;;;;;;;4.64;79.12;101590.47;1093583;39;20638;-82
2022/01/23 02:51:40;;;;;;;21.88;16.20;;;;;;;4.76;78.92;101579.34;1088413;54;20058;-82
2022/01/23 02:53:12;;;;;;;22.83;15.73;;;;;;;4.86;78.58;101576.28;1088397;54;20026;-81
2022/01/23 02:54:39;;;;;;;21.90;14.25;;;;;;;4.91;78.45;101576.94;1088418;54;20019;-81
2022/01/23 02:55:49;;;;;;;20.50;13.93;;;;;;;4.75;78.66;101566.16;1088427;54;20019;-81
2022/01/23 02:57:00;;;;;;;24.83;15.70;;;;;;;4.61;78.80;101562.34;1088548;54;20082;-83
2022/01/23 02:58:06;;;;;;;26.42;18.00;;;;;;;4.63;79.41;101567.59;1088341;54;20025;-84
2022/01/23 02:59:14;;;;;;;25.58;17.67;;;;;;;4.63;79.23;101567.59;1088552;54;20030;-80
2022/01/23 03:00:20;;;;;;;22.92;16.67;;;;;;;4.76;78.71;101571.38;1095353;47;20038;-83
2022/01/23 03:01:24;;;;;;;19.75;14.73;;;;;;;4.86;78.62;101576.28;1090132;47;20026;-83
2022/01/23 03:02:38;;;;;;;20.30;14.93;;;;;;;4.87;78.36;101565.59;1088346;54;20034;-82
2022/01/23 03:03:44;;;;;;;20.38;15.43;;;;;;;4.87;78.35;101573.53;1088481;54;20049;-82
2022/01/23 03:04:52;;;;;;;21.05;16.20;;;;;;;4.88;77.96;101577.06;1089299;47;20591;-81
2022/01/23 03:06:16;;;;;;;21.35;16.73;;;;;;;4.88;78.13;101579.72;1089196;47;20019;-83
2022/01/23 03:07:37;;;;;;;20.60;15.70;;;;;;;4.82;78.05;101594.09;1088489;54;20629;-81
2022/01/23 03:09:01;;;;;;;24.67;16.55;;;;;;;4.75;78.32;101593.50;1088524;54;20034;-81
2022/01/23 03:10:19;;;;;;;26.05;17.95;;;;;;;4.65;78.22;101605.44;1088572;47;20029;-83
2022/01/23 03:11:43;;;;;;;25.13;17.23;;;;;;;4.71;78.31;101604.31;1088433;54;20015;-81
2022/01/23 03:14:20;;;;;;;21.92;16.00;;;;;;;4.59;78.39;101592.50;1088340;54;20033;-81
2022/01/23 03:15:28;;;;;;;23.77;16.75;;;;;;;4.69;78.40;101601.75;1097181;39;20540;-80
2022/01/23 03:24:37;;;;;;;27.40;17.45;;;;;;;4.71;78.30;101609.63;1087461;54;20545;-79
2022/01/23 03:26:09;;;;;;;25.85;18.48;;;;;;;4.66;78.23;101605.41;1087576;54;20054;-79
2022/01/23 03:29:01;;;;;;;19.40;14.02;;;;;;;4.75;78.39;101606.75;1087157;54;20043;-81
2022/01/23 03:30:16;;;;;;;20.20;15.25;;;;;;;4.82;78.23;101610.84;1087988;54;20066;-81
2022/01/23 03:31:22;;;;;;;18.60;13.85;;;;;;;4.81;77.91;101613.56;1087910;54;20110;-80
2022/01/23 03:32:35;;;;;;;20.17;14.98;;;;;;;4.82;77.93;101613.50;1087902;54;20022;-80
2022/01/23 03:33:39;;;;;;;22.10;15.52;;;;;;;4.83;77.76;101612.56;1088682;46;20521;-81
2022/01/23 03:34:43;;;;;;;19.02;14.57;;;;;;;4.86;77.99;101616.03;1087895;54;20038;-80
2022/01/23 03:35:53;;;;;;;20.13;14.75;;;;;;;4.88;77.85;101608.88;1088196;54;20018;-80
2022/01/23 03:36:59;;;;;;;18.90;13.85;;;;;;;4.89;77.76;101600.00;1090204;39;20441;-80
2022/01/23 03:38:00;;;;;;;17.48;12.82;;;;;;;4.91;77.74;101608.75;1087988;54;20074;-80
2022/01/23 03:39:06;;;;;;;20.30;14.68;;;;;;;4.95;77.58;101616.47;1087976;54;20042;-81
2022/01/23 03:40:12;;;;;;;20.88;15.55;;;;;;;4.88;77.81;101625.63;1087985;54;20053;-79
2022/01/23 03:41:14;;;;;;;21.15;15.32;;;;;;;4.91;77.69;101622.00;1087816;54;20045;-80
2022/01/23 03:42:19;;;;;;;22.52;17.40;;;;;;;4.89;77.72;101626.50;1091742;46;20078;-81
2022/01/23 03:43:27;;;;;;;24.67;18.33;;;;;;;4.86;77.81;101626.63;1090669;46;20010;-81
2022/01/23 03:44:39;;;;;;;27.05;18.25;;;;;;;4.79;77.70;101626.91;1088876;54;20029;-82
2022/01/23 03:45:57;;;;;;;24.92;17.95;;;;;;;4.78;77.93;101626.94;1088735;54;20023;-84
2022/01/23 03:47:15;;;;;;;24.83;16.25;;;;;;;4.75;77.73;101617.34;1089841;46;20054;-81
2022/01/23 03:49:33;;;;;;;21.65;16.67;;;;;;;4.74;78.10;101618.28;1088786;54;20022;-81
2022/01/23 03:50:41;;;;;;;25.73;17.27;;;;;;;4.74;78.05;101607.69;1088729;54;20066;-81
2022/01/23 03:51:45;;;;;;;21.75;15.68;;;;;;;4.80;77.92;101615.38;1088759;54;20671;-84
2022/01/23 03:52:51;;;;;;;23.38;16.38;;;;;;;4.80;77.94;101612.72;1088668;54;20014;-83
2022/01/23 03:53:52;;;;;;;22.15;15.82;;;;;;;4.84;77.59;101613.44;1088813;54;20076;-87
2022/01/23 03:55:11;;;;;;;20.63;14.75;;;;;;;4.83;77.79;101609.91;1092958;46;20033;-80
2022/01/23 03:56:14;;;;;;;20.80;15.32;;;;;;;4.85;77.72;101599.28;1091238;39;20658;-82
2022/01/23 03:57:18;;;;;;;18.92;14.80;;;;;;;4.83;77.80;101601.13;1088582;54;20018;-82
2022/01/23 03:58:20;;;;;;;21.75;16.00;;;;;;;4.66;78.14;101604.53;1088689;54;20019;-83
2022/01/23 03:59:25;;;;;;;24.17;16.63;;;;;;;4.74;78.34;101610.34;1088720;54;20018;-79
2022/01/23 04:00:30;;;;;;;21.27;15.20;;;;;;;4.80;77.96;101610.09;1089024;39;20662;-81
2022/01/23 04:01:43;;;;;;;22.08;15.70;;;;;;;4.83;77.82;101615.22;1088464;54;20034;-79
2022/01/23 04:02:47;;;;;;;20.33;15.35;;;;;;;4.87;77.82;101613.28;1089450;39;20461;-80
2022/01/23 04:04:03;;;;;;;21.45;15.65;;;;;;;4.86;77.81;101616.03;1088637;54;20019;-82
2022/01/23 04:05:08;;;;;;;18.42;14.30;;;;;;;4.88;77.55;101611.53;1088688;54;20103;-80
2022/01/23 04:06:12;;;;;;;19.80;14.73;;;;;;;4.88;77.57;101604.41;1095697;46;20038;-81
2022/01/23 04:07:20;;;;;;;21.67;15.05;;;;;;;4.82;77.72;101594.94;1089449;46;20160;-80
2022/01/23 04:08:22;;;;;;;25.02;18.85;;;;;;;4.60;78.48;101599.50;1092339;39;20524;-82
2022/01/23 04:09:36;;;;;;;27.67;19.25;;;;;;;4.56;78.90;101593.50;1088751;54;20014;-81
2022/01/23 04:10:39;;;;;;;22.52;17.23;;;;;;;4.69;78.50;101591.16;1088699;54;20098;-84
2022/01/23 04:11:44;;;;;;;22.25;17.40;;;;;;;4.75;78.29;101597.97;1088648;54;20018;-81
2022/01/23 04:12:51;;;;;;;22.77;15.90;;;;;;;4.86;78.06;101600.13;1088638;54;20058;-81
2022/01/23 04:14:00;;;;;;;23.70;16.55;;;;;;;4.88;78.19;101592.97;1088756;46;20022;-82
2022/01/23 04:15:12;;;;;;;20.83;15.48;;;;;;;4.90;77.99;101593.75;1088684;54;20066;-80
2022/01/23 04:16:39;;;;;;;20.30;15.07;;;;;;;4.89;77.91;101597.34;1088709;54;20094;-81
2022/01/23 04:19:18;;;;;;;24.08;17.85;;;;;;;4.67;78.74;101595.66;1088422;54;20014;-83
2022/01/23 04:20:35;;;;;;;22.10;16.95;;;;;;;4.71;78.44;101605.19;1088720;54;20038;-80
2022/01/23 04:32:08;;;;;;;24.85;16.58;;;;;;;4.56;78.71;101592.63;1088609;54;20595;-82
2022/01/23 04:33:25;;;;;;;22.38;16.70;;;;;;;4.66;78.66;101593.94;1091190;46;20026;-79
2022/01/23 04:35:05;;;;;;;23.00;16.70;;;;;;;4.59;78.69;101584.53;1088006;39;21147;-81
2022/01/23 04:45:30;;;;;;;21.65;15.70;;;;;;;4.82;78.04;101580.84;1088965;39;20528;-79
2022/01/23 04:59:47;;;;;;;25.08;18.13;;;;;;;4.63;78.44;101597.59;1088753;54;20027;-85
2022/01/23 05:00:52;;;;;;;22.73;17.23;;;;;;;4.65;78.60;101602.81;1088759;54;20023;-83
2022/01/23 05:04:20;;;;;;;27.95;20.42;;;;;;;4.59;78.49;101621.63;1087652;54;20050;-83
2022/01/23 05:05:27;;;;;;;25.50;18.83;;;;;;;4.60;78.72;101604.81;1088601;54;20054;-80
2022/01/23 05:06:38;;;;;;;25.45;18.95;;;;;;;4.62;78.58;101600.31;1088572;54;20034;-82
2022/01/23 05:07:46;;;;;;;26.27;19.15;;;;;;;4.64;78.41;101607.25;1088348;54;20037;-80
2022/01/23 05:08:47;;;;;;;26.63;18.27;;;;;;;4.65;78.17;101601.03;1088456;54;20058;-80
2022/01/23 05:09:52;;;;;;;25.77;18.00;;;;;;;4.61;78.23;101603.88;1088378;54;20038;-81
2022/01/23 05:10:58;;;;;;;26.42;18.55;;;;;;;4.65;78.55;101602.81;1088657;46;20034;-80
2022/01/23 05:12:06;;;;;;;24.77;17.35;;;;;;;4.65;78.38;101603.69;1088535;54;20075;-80
2022/01/23 05:13:08;;;;;;;23.05;16.70;;;;;;;4.68;78.35;101602.69;1088385;54;20014;-81
2022/01/23 05:14:14;;;;;;;23.40;17.67;;;;;;;4.61;78.37;101601.22;1088462;54;20041;-81
2022/01/23 05:15:16;;;;;;;23.98;16.85;;;;;;;4.62;78.58;101600.31;1088411;54;20011;-81
2022/01/23 05:16:21;;;;;;;23.10;16.95;;;;;;;4.70;78.42;101598.19;1088320;54;20033;-80
2022/01/23 05:17:23;;;;;;;21.90;16.00;;;;;;;4.78;78.14;101604.00;1088254;54;20033;-80
2022/01/23 05:18:35;;;;;;;19.83;14.43;;;;;;;4.81;78.15;101614.47;1088733;46;20034;-84
2022/01/23 05:19:44;;;;;;;23.90;16.50;;;;;;;4.75;77.84;101606.75;1088629;54;20021;-84
2022/01/23 05:20:47;;;;;;;24.17;17.15;;;;;;;4.76;78.08;101612.94;1088594;54;20058;-84
2022/01/23 05:23:01;;;;;;;21.38;15.38;;;;;;;4.81;78.02;101609.16;1087729;54;20073;-84
2022/01/23 05:24:04;;;;;;;22.73;15.60;;;;;;;4.83;77.88;101617.88;1088491;54;20593;-79
2022/01/23 05:25:19;;;;;;;20.35;15.00;;;;;;;4.83;77.81;101625.81;1088586;54;20732;-81
2022/01/23 05:26:45;;;;;;;;;;;;;;;;;;;;;
2022/01/23 05:29:16;;;;;;;22.17;16.17;;;;;;;4.76;77.92;101624.38;1088408;54;20713;-81
2022/01/23 05:32:24;;;;;;;27.92;17.83;;;;;;;4.57;78.20;101615.53;1088433;54;20018;-83
2022/01/23 05:33:45;;;;;;;26.25;18.83;;;;;;;4.42;78.88;101612.63;1093836;39;20757;-83
2022/01/23 05:35:05;;;;;;;25.58;18.63;;;;;;;4.50;78.83;101615.81;1089347;46;20018;-82
2022/01/23 05:36:07;;;;;;;22.15;16.33;;;;;;;4.56;78.57;101616.44;1088582;54;20014;-81
2022/01/23 05:37:16;;;;;;;25.27;18.23;;;;;;;4.53;78.72;101613.00;1088586;54;20096;-82
2022/01/23 05:38:17;;;;;;;22.45;16.52;;;;;;;4.63;78.55;101605.53;1088578;54;20015;-82
2022/01/23 05:42:06;;;;;;;23.30;16.65;;;;;;;4.79;78.05;101611.00;1087426;54;20053;-82
2022/01/23 05:52:54;;;;;;;17.90;13.65;;;;;;;4.92;77.79;101629.84;1087550;54;20809;-80
2022/01/23 05:53:56;;;;;;;21.90;14.75;;;;;;;4.96;77.65;101635.88;1087981;54;20062;-79
2022/01/23 05:55:00;;;;;;;21.88;14.32;;;;;;;4.98;77.49;101631.38;1088106;54;20034;-79
2022/01/23 05:56:02;;;;;;;19.38;13.05;;;;;;;5.02;77.58;101640.03;1098518;39;20472;-81
2022/01/23 05:57:08;;;;;;;18.85;12.80;;;;;;;5.07;77.18;101638.03;1087843;54;20054;-80
2022/01/23 05:58:10;;;;;;;17.92;12.90;;;;;;;5.08;77.13;101637.97;1087487;54;20647;-79
2022/01/23 05:59:16;;;;;;;19.13;13.15;;;;;;;5.09;77.25;101636.19;1087739;54;20018;-79
2022/01/23 06:00:17;;;;;;;18.17;13.82;;;;;;;5.10;77.40;101640.56;1088190;54;20575;-80
2022/01/23 06:01:29;;;;;;;21.05;16.00;;;;;;;5.03;77.07;101641.78;1088018;54;20026;-79
2022/01/23 06:02:33;;;;;;;23.45;17.08;;;;;;;4.97;77.19;101640.25;1087681;54;20063;-79
2022/01/23 06:03:40;;;;;;;23.08;16.70;;;;;;;4.92;77.48;101639.59;1087767;54;20038;-79
2022/01/23 06:04:44;;;;;;;23.45;16.38;;;;;;;4.94;77.48;101645.69;1087853;54;20546;-81
2022/01/23 06:05:54;;;;;;;23.52;15.82;;;;;;;4.94;77.67;101645.69;1087891;54;20038;-80
2022/01/23 06:06:59;;;;;;;24.63;16.60;;;;;;;4.92;77.36;101644.88;1088095;54;20022;-80
2022/01/23 06:08:04;;;;;;;20.75;15.00;;;;;;;4.95;77.56;101639.47;1088093;54;20034;-79
2022/01/23 06:09:08;;;;;;;22.60;16.25;;;;;;;4.97;77.21;101640.25;1087804;54;20566;-80
2022/01/23 06:10:53;;;;;;;22.13;15.75;;;;;;;4.92;77.10;101644.88;1088095;54;20051;-79
2022/01/23 06:12:12;;;;;;;20.35;15.05;;;;;;;4.93;77.46;101646.59;1088576;54;20042;-82
2022/01/23 06:13:14;;;;;;;22.25;15.07;;;;;;;4.95;77.22;101642.97;1088485;54;20030;-81
2022/01/23 06:14:19;;;;;;;21.13;15.18;;;;;;;4.96;77.23;101647.31;1088241;54;20021;-83
2022/01/23 06:15:21;;;;;;;20.65;15.48;;;;;;;4.97;77.48;101643.75;1088268;54;20040;-82
2022/01/23 06:16:36;;;;;;;21.20;15.05;;;;;;;4.99;77.41;101646.34;1088393;54;20105;-83
2022/01/23 06:17:38;;;;;;;20.98;15.40;;;;;;;4.95;77.40;101640.34;1089921;39;20454;-82
2022/01/23 06:18:44;;;;;;;23.27;16.73;;;;;;;4.94;77.35;101635.09;1088528;54;20134;-82
2022/01/23 06:19:46;;;;;;;26.80;19.17;;;;;;;4.84;77.58;101650.56;1088443;54;20043;-83
2022/01/23 06:20:51;;;;;;;24.70;17.88;;;;;;;4.79;77.78;101648.09;1088288;54;20034;-82
2022/01/23 06:21:55;;;;;;;27.50;19.08;;;;;;;4.79;77.99;101658.72;1088352;54;20011;-82
2022/01/23 06:22:57;;;;;;;23.05;16.13;;;;;;;4.83;77.69;101649.66;1088342;54;20027;-82
2022/01/23 06:24:14;;;;;;;23.50;15.77;;;;;;;4.87;77.69;101652.19;1097054;31;20770;-82
2022/01/23 06:25:17;;;;;;;24.45;17.27;;;;;;;4.86;77.81;101661.06;1088301;54;20622;-83
2022/01/23 06:26:37;;;;;;;22.98;17.00;;;;;;;4.84;77.82;101655.84;1088327;54;20050;-83
2022/01/23 06:37:03;;;;;;;24.00;18.38;;;;;;;4.82;77.75;101660.34;1087442;54;21319;-82
2022/01/23 07:21:19;;;;;;;23.85;17.33;;;;;;;4.72;79.39;101702.31;1087219;54;20042;-79
2022/01/23 07:22:21;;;;;;;24.80;17.73;;;;;;;4.76;79.21;101706.53;1087940;39;20733;-78
2022/01/23 07:23:25;;;;;;;25.85;17.25;;;;;;;4.82;78.82;101706.25;1087409;54;20034;-78
2022/01/23 07:24:30;;;;;;;24.98;17.58;;;;;;;4.82;78.78;101714.19;1088154;46;20023;-78
2022/01/23 07:25:32;;;;;;;23.95;18.08;;;;;;;4.84;78.98;101709.69;1087696;46;20125;-78
2022/01/23 07:26:36;;;;;;;25.10;17.10;;;;;;;4.91;78.93;101715.59;1089037;46;20042;-78
2022/01/23 07:27:46;;;;;;;26.42;17.50;;;;;;;4.94;78.54;101719.91;1087477;54;20051;-78
2022/01/23 07:28:50;;;;;;;24.15;17.58;;;;;;;4.95;78.75;101724.28;1087505;54;20030;-79
2022/01/23 07:29:54;;;;;;;22.67;16.98;;;;;;;4.95;78.69;101724.28;1087444;54;20030;-79
2022/01/23 07:31:03;;;;;;;24.55;18.10;;;;;;;4.99;78.64;101726.72;1088939;46;20034;-80
2022/01/23 07:32:07;;;;;;;23.30;16.90;;;;;;;4.99;78.65;101720.56;1087640;46;20041;-78
2022/01/23 07:33:12;;;;;;;22.42;16.55;;;;;;;5.02;78.65;101724.88;1087305;54;20147;-78
2022/01/23 07:34:13;;;;;;;23.45;16.83;;;;;;;5.06;78.73;101718.47;1089111;46;20031;-78
2022/01/23 07:35:17;;;;;;;23.40;16.85;;;;;;;5.10;78.53;101728.03;1087418;54;20038;-78
2022/01/23 07:36:21;;;;;;;24.23;17.17;;;;;;;5.12;78.33;101719.06;1087971;46;20041;-78
2022/01/23 07:37:25;;;;;;;26.60;19.38;;;;;;;4.87;78.94;101724.59;1087772;54;20030;-79
2022/01/23 07:38:27;;;;;;;30.83;20.52;;;;;;;4.81;79.28;101717.81;1087731;54;20034;-81
2022/01/23 07:39:31;;;;;;;28.98;20.77;;;;;;;4.81;79.28;101724.88;1088116;46;20035;-78
2022/01/23 07:40:35;;;;;;;29.27;20.27;;;;;;;4.78;79.56;101725.88;1087747;54;20015;-81
2022/01/23 07:41:37;;;;;;;31.45;21.35;;;;;;;4.81;79.38;101725.75;1087724;54;20049;-79
2022/01/23 07:42:41;;;;;;;29.88;20.55;;;;;;;4.90;79.07;101719.19;1088278;46;20040;-78
2022/01/23 07:43:43;;;;;;;25.02;18.27;;;;;;;4.98;78.84;101714.41;1089324;46;20069;-80
2022/01/23 07:44:47;;;;;;;25.25;18.00;;;;;;;5.09;78.55;101724.53;1087770;54;20139;-78
2022/01/23 07:45:49;;;;;;;26.80;19.90;;;;;;;4.95;78.96;101719.84;1087782;54;20045;-78
2022/01/23 07:46:54;;;;;;;29.05;21.02;;;;;;;4.88;79.30;101717.53;1089492;46;20031;-79
2022/01/23 07:47:56;;;;;;;28.55;19.98;;;;;;;4.76;79.29;101721.56;1088544;46;20038;-78
2022/01/23 07:49:00;;;;;;;27.88;21.30;;;;;;;4.76;79.56;101726.88;1087830;54;20030;-79
2022/01/23 07:50:03;;;;;;;30.60;21.38;;;;;;;4.67;79.46;101733.41;1087792;54;20038;-79
2022/01/23 07:51:07;;;;;;;27.85;21.05;;;;;;;4.66;79.91;101724.63;1087738;54;20120;-79
2022/01/23 07:52:11;;;;;;;32.35;22.52;;;;;;;4.68;79.78;101728.03;1088582;46;20026;-78
2022/01/23 07:53:15;;;;;;;31.73;22.85;;;;;;;4.67;79.80;101729.00;1087797;54;20034;-79
2022/01/23 07:54:17;;;;;;;35.33;23.73;;;;;;;4.69;79.80;101723.63;1087715;54;20042;-78
2022/01/23 07:55:21;;;;;;;32.08;22.80;;;;;;;4.71;79.70;101724.44;1087945;54;20030;-78
2022/01/23 07:56:23;;;;;;;31.55;21.70;;;;;;;4.79;79.24;101722.31;1087838;46;20038;-80
2022/01/23 07:57:27;;;;;;;27.40;19.98;;;;;;;4.92;79.13;101729.69;1088563;46;20030;-79
2022/01/23 07:58:31;;;;;;;25.90;19.45;;;;;;;5.00;78.57;101724.94;1087830;54;20037;-80
2022/01/23 07:59:34;;;;;;;28.38;19.67;;;;;;;5.06;78.64;101729.97;1087807;54;20482;-85
2022/01/23 08:00:38;;;;;;;23.38;18.05;;;;;;;5.09;78.51;101727.19;1087834;54;20038;-80
2022/01/23 08:01:40;;;;;;;24.80;18.67;;;;;;;5.12;78.13;101735.00;1088077;46;20042;-81
2022/01/23 08:02:44;;;;;;;25.98;18.38;;;;;;;5.10;78.44;101731.53;1087761;54;20037;-80
2022/01/23 08:03:46;;;;;;;23.10;16.42;;;;;;;5.12;78.07;101729.69;1088500;46;20034;-78
2022/01/23 08:04:50;;;;;;;24.05;17.80;;;;;;;5.16;78.16;101725.09;1088363;46;20111;-80
2022/01/23 08:05:52;;;;;;;21.83;16.55;;;;;;;5.21;78.19;101728.44;1087806;54;20038;-80
2022/01/23 08:07:08;;;;;;;21.60;15.93;;;;;;;5.23;78.05;101723.94;1087962;46;20037;-80
2022/01/23 08:08:12;;;;;;;24.58;15.88;;;;;;;5.27;77.89;101724.63;1088514;46;20086;-79
2022/01/23 08:09:17;;;;;;;24.05;16.67;;;;;;;5.29;77.71;101734.25;1087783;54;20061;-79
2022/01/23 08:10:19;;;;;;;19.58;15.50;;;;;;;5.32;77.93;101730.59;1089085;46;20054;-79
2022/01/23 08:11:23;;;;;;;22.48;15.93;;;;;;;5.34;77.67;101725.22;1087592;54;20079;-79
2022/01/23 08:12:24;;;;;;;23.25;16.90;;;;;;;5.32;77.72;101735.88;1087875;47;20046;-80
2022/01/23 08:13:28;;;;;;;23.60;17.73;;;;;;;5.17;77.74;101726.81;1088964;46;20030;-79
2022/01/23 08:14:30;;;;;;;23.27;17.70;;;;;;;5.23;77.87;101742.47;1087804;54;20548;-79
2022/01/23 08:15:34;;;;;;;27.77;20.55;;;;;;;4.97;78.50;101738.31;1087657;54;20037;-79
2022/01/23 08:16:36;;;;;;;27.52;20.60;;;;;;;4.90;78.77;101734.22;1087711;54;20033;-78
2022/01/23 08:17:40;;;;;;;29.05;21.08;;;;;;;4.85;78.98;101739.72;1087795;54;20033;-79
2022/01/23 08:18:41;;;;;;;30.58;22.50;;;;;;;4.80;79.24;101739.03;1087773;54;20027;-79
2022/01/23 08:19:46;;;;;;;28.70;20.27;;;;;;;4.82;78.94;101742.50;1089026;46;20038;-79
2022/01/23 08:20:47;;;;;;;29.20;20.40;;;;;;;4.75;79.03;101739.25;1087779;54;20019;-79
2022/01/23 08:21:51;;;;;;;30.25;21.33;;;;;;;4.76;78.99;101738.31;1088520;46;20082;-80
2022/01/23 08:22:53;;;;;;;31.10;20.45;;;;;;;4.72;79.02;101744.69;1087852;54;20030;-79
2022/01/23 08:24:00;;;;;;;31.25;21.83;;;;;;;4.72;79.25;101736.75;1088882;46;20112;-79
2022/01/23 08:25:02;;;;;;;28.30;20.58;;;;;;;4.81;79.04;101741.66;1087947;46;20014;-80
2022/01/23 08:26:06;;;;;;;30.33;21.75;;;;;;;4.82;79.16;101737.19;1087854;54;20034;-79
2022/01/23 08:27:08;;;;;;;27.88;19.88;;;;;;;4.90;78.61;101744.84;1087858;47;20017;-80
2022/01/23 08:28:14;;;;;;;28.15;20.30;;;;;;;4.94;78.44;101741.97;1089066;46;20037;-81
2022/01/23 08:29:16;;;;;;;29.30;20.42;;;;;;;4.93;78.59;101747.31;1087820;54;20030;-80
2022/01/23 08:30:20;;;;;;;29.58;20.48;;;;;;;4.90;78.83;101750.97;1087728;54;20055;-79
2022/01/23 08:31:24;;;;;;;30.58;21.23;;;;;;;4.92;78.70;101745.59;1087763;54;20015;-79
2022/01/23 08:32:26;;;;;;;27.77;19.33;;;;;;;4.94;78.80;101741.97;1089183;46;20041;-80
2022/01/23 08:33:30;;;;;;;27.25;19.45;;;;;;;5.00;78.51;101749.66;1087664;54;20033;-79
2022/01/23 08:34:32;;;;;;;28.77;20.27;;;;;;;5.03;78.46;101748.66;1089780;46;20022;-79
2022/01/23 08:35:36;;;;;;;30.38;20.10;;;;;;;4.97;78.94;101746.28;1087784;54;20039;-80
2022/01/23 08:36:38;;;;;;;28.98;20.00;;;;;;;4.98;78.80;101743.56;1088935;46;20030;-80
2022/01/23 08:37:43;;;;;;;32.83;21.38;;;;;;;4.96;78.76;101742.75;1088461;46;20034;-81
2022/01/23 08:38:44;;;;;;;30.10;21.77;;;;;;;4.89;79.04;101748.41;1087906;54;20058;-78
2022/01/23 08:39:51;;;;;;;29.67;21.05;;;;;;;4.85;79.19;101750.34;1087981;54;20022;-81
2022/01/23 08:42:20;;;;;;;29.45;20.58;;;;;;;4.74;79.78;101763.16;1087577;54;20027;-78
2022/01/23 08:43:22;;;;;;;29.63;20.45;;;;;;;4.77;79.67;101749.81;1091053;46;20035;-79
2022/01/23 08:44:28;;;;;;;26.73;19.20;;;;;;;4.84;79.41;101759.19;1087760;54;20037;-79
2022/01/23 08:45:32;;;;;;;26.75;19.10;;;;;;;4.91;79.20;101757.16;1087816;54;20035;-79
2022/01/23 08:46:33;;;;;;;29.13;20.95;;;;;;;4.74;79.20;101761.38;1089207;46;20031;-79
2022/01/23 08:47:37;;;;;;;31.77;22.08;;;;;;;4.69;79.42;101758.91;1087775;54;20038;-79